Time,TemperatureF,DewpointF,PressureIn,WindDirection,WindDirectionDegrees,WindSpeedMPH,WindSpeedGustMPH,Humidity,HourlyPrecipIn,Conditions,Clouds,dailyrainin,SoftwareType,DateUTC
2013-10-23 00:01:00,45.2,41.6,30.05,ESE,103,0.0,3.0,87,0.00,,---,0.01,VWS V14.01,2013-10-23 07:01:00,
2013-10-23 00:06:00,45.2,41.6,30.04,East,96,0.0,0.0,87,0.00,,---,0.00,VWS V14.01,2013-10-23 07:06:00,
2013-10-23 00:11:00,45.2,41.6,30.04,East,88,0.0,0.0,87,0.00,,---,0.00,VWS V14.01,2013-10-23 07:11:00,
2013-10-23 00:16:00,45.1,41.5,30.04,ESE,103,1.0,3.0,87,0.00,,---,0.00,VWS V14.01,2013-10-23 07:16:00,
2013-10-23 00:21:00,45.2,41.6,30.04,East,90,1.0,3.0,87,0.00,,---,0.00,VWS V14.01,2013-10-23 07:21:00,
2013-10-23 00:26:00,45.1,41.5,30.04,East,96,2.0,2.0,87,0.00,,---,0.00,VWS V14.01,2013-10-23 07:26:00,
2013-10-23 00:31:00,45.2,41.6,30.04,ESE,103,3.0,3.0,87,0.00,,---,0.00,VWS V14.01,2013-10-23 07:31:00,
2013-10-23 00:36:00,45.2,41.6,30.05,East,91,0.0,3.0,87,0.00,,---,0.00,VWS V14.01,2013-10-23 07:36:00,
2013-10-23 00:41:00,45.3,41.7,30.05,East,94,2.0,2.0,87,0.00,,---,0.00,VWS V14.01,2013-10-23 07:41:00,
2013-10-23 00:46:00,45.4,41.8,30.04,East,94,1.0,2.0,87,0.00,,---,0.00,VWS V14.01,2013-10-23 07:46:00,
2013-10-23 00:51:00,45.5,41.9,30.04,East,93,1.0,3.0,87,0.00,,---,0.00,VWS V14.01,2013-10-23 07:51:00,
2013-10-23 00:56:00,45.5,41.9,30.04,East,89,0.0,3.0,87,0.00,,---,0.00,VWS V14.01,2013-10-23 07:56:00,
2013-10-23 01:01:00,45.7,42.4,30.04,East,94,0.0,2.0,88,0.00,,---,0.00,VWS V14.01,2013-10-23 08:01:00,
2013-10-23 01:06:00,45.7,42.4,30.04,East,86,0.0,2.0,88,0.00,,---,0.00,VWS V14.01,2013-10-23 08:06:00,
2013-10-23 01:11:00,45.8,42.5,30.04,East,86,1.0,1.0,88,0.00,,---,0.00,VWS V14.01,2013-10-23 08:11:00,
2013-10-23 01:16:00,45.8,42.5,30.04,ESE,103,1.0,2.0,88,0.00,,---,0.00,VWS V14.01,2013-10-23 08:16:00,
2013-10-23 01:21:00,45.8,42.5,30.04,East,84,0.0,2.0,88,0.00,,---,0.00,VWS V14.01,2013-10-23 08:21:00,
2013-10-23 01:26:00,45.8,42.5,30.04,East,94,1.0,2.0,88,0.00,,---,0.00,VWS V14.01,2013-10-23 08:26:00,
2013-10-23 01:31:00,45.8,42.5,30.04,East,95,2.0,3.0,88,0.00,,---,0.00,VWS V14.01,2013-10-23 08:31:00,
2013-10-23 01:36:00,45.8,42.5,30.04,East,91,2.0,4.0,88,0.00,,---,0.00,VWS V14.01,2013-10-23 08:36:00,
2013-10-23 01:41:00,45.8,42.5,30.04,East,95,1.0,3.0,88,0.00,,---,0.00,VWS V14.01,2013-10-23 08:41:00,
2013-10-23 01:46:00,45.8,42.5,30.04,East,84,1.0,4.0,88,0.00,,---,0.00,VWS V14.01,2013-10-23 08:46:00,
2013-10-23 01:51:00,45.9,42.5,30.04,East,86,0.0,2.0,88,0.00,,---,0.00,VWS V14.01,2013-10-23 08:51:00,
2013-10-23 01:56:00,46.0,42.7,30.04,East,86,0.0,1.0,88,0.00,,---,0.00,VWS V14.01,2013-10-23 08:56:00,
2013-10-23 02:01:00,46.0,42.7,30.04,East,87,0.0,1.0,88,0.00,,---,0.00,VWS V14.01,2013-10-23 09:01:00,
2013-10-23 02:06:00,46.1,42.8,30.04,East,96,1.0,2.0,88,0.00,,---,0.00,VWS V14.01,2013-10-23 09:06:00,
2013-10-23 02:11:00,46.2,42.8,30.04,ENE,77,2.0,2.0,88,0.00,,---,0.00,VWS V14.01,2013-10-23 09:11:00,
2013-10-23 02:16:00,46.1,42.8,30.04,East,96,0.0,1.0,88,0.00,,---,0.00,VWS V14.01,2013-10-23 09:16:00,
2013-10-23 02:21:00,46.2,42.8,30.04,East,96,2.0,3.0,88,0.00,,---,0.00,VWS V14.01,2013-10-23 09:21:00,
2013-10-23 02:26:00,46.3,43.0,30.04,East,94,1.0,2.0,88,0.00,,---,0.00,VWS V14.01,2013-10-23 09:26:00,
2013-10-23 02:31:00,46.3,43.0,30.04,East,95,1.0,2.0,88,0.00,,---,0.00,VWS V14.01,2013-10-23 09:31:00,
2013-10-23 02:36:00,46.3,43.0,30.04,East,89,1.0,3.0,88,0.00,,---,0.00,VWS V14.01,2013-10-23 09:36:00,
2013-10-23 02:41:00,46.4,43.0,30.04,East,94,0.0,2.0,88,0.00,,---,0.00,VWS V14.01,2013-10-23 09:41:00,
2013-10-23 02:46:00,46.5,43.1,30.04,East,94,1.0,1.0,88,0.00,,---,0.00,VWS V14.01,2013-10-23 09:46:00,
2013-10-23 02:51:00,46.4,43.0,30.04,East,92,1.0,3.0,88,0.00,,---,0.00,VWS V14.01,2013-10-23 09:51:00,
2013-10-23 02:56:00,46.2,42.8,30.04,East,90,1.0,2.0,88,0.00,,---,0.00,VWS V14.01,2013-10-23 09:56:00,
2013-10-23 03:01:00,46.3,43.0,30.04,East,87,0.0,1.0,88,0.00,,---,0.00,VWS V14.01,2013-10-23 10:01:00,
2013-10-23 03:06:00,46.3,43.0,30.04,East,94,1.0,1.0,88,0.00,,---,0.00,VWS V14.01,2013-10-23 10:06:00,
2013-10-23 03:11:00,46.3,43.0,30.04,East,89,1.0,1.0,88,0.00,,---,0.00,VWS V14.01,2013-10-23 10:11:00,
2013-10-23 03:16:00,46.2,42.8,30.04,East,93,1.0,2.0,88,0.00,,---,0.00,VWS V14.01,2013-10-23 10:16:00,
2013-10-23 03:21:00,46.1,42.8,30.04,East,95,1.0,3.0,88,0.00,,---,0.00,VWS V14.01,2013-10-23 10:21:00,
2013-10-23 03:26:00,46.1,42.8,30.04,East,93,1.0,2.0,88,0.00,,---,0.00,VWS V14.01,2013-10-23 10:26:00,
2013-10-23 03:31:00,46.1,42.8,30.04,North,4,0.0,2.0,88,0.00,,---,0.00,VWS V14.01,2013-10-23 10:31:00,
2013-10-23 03:36:00,45.9,42.5,30.04,ENE,77,1.0,3.0,88,0.00,,---,0.00,VWS V14.01,2013-10-23 10:36:00,
2013-10-23 03:41:00,45.9,42.5,30.04,East,88,0.0,0.0,88,0.00,,---,0.00,VWS V14.01,2013-10-23 10:41:00,
2013-10-23 03:46:00,45.8,42.5,30.04,East,87,0.0,0.0,88,0.00,,---,0.00,VWS V14.01,2013-10-23 10:46:00,
2013-10-23 03:51:00,45.7,42.4,30.04,East,93,1.0,1.0,88,0.00,,---,0.00,VWS V14.01,2013-10-23 10:51:00,
2013-10-23 03:56:00,45.6,42.3,30.04,East,97,2.0,2.0,88,0.00,,---,0.00,VWS V14.01,2013-10-23 10:56:00,
2013-10-23 04:01:00,45.4,42.1,30.04,East,93,0.0,1.0,88,0.00,,---,0.00,VWS V14.01,2013-10-23 11:01:00,
2013-10-23 04:06:00,45.4,42.1,30.04,East,94,0.0,1.0,88,0.00,,---,0.00,VWS V14.01,2013-10-23 11:06:00,
2013-10-23 04:11:00,45.4,42.1,30.03,East,84,0.0,1.0,88,0.00,,---,0.00,VWS V14.01,2013-10-23 11:11:00,
2013-10-23 04:16:00,45.2,41.9,30.03,NNE,18,0.0,1.0,88,0.00,,---,0.00,VWS V14.01,2013-10-23 11:16:00,
2013-10-23 04:21:00,45.1,41.8,30.04,NNE,19,0.0,1.0,88,0.00,,---,0.00,VWS V14.01,2013-10-23 11:21:00,
2013-10-23 04:26:00,45.0,41.7,30.04,NNE,27,0.0,3.0,88,0.00,,---,0.00,VWS V14.01,2013-10-23 11:26:00,
2013-10-23 04:31:00,44.7,41.4,30.03,East,86,1.0,1.0,88,0.00,,---,0.00,VWS V14.01,2013-10-23 11:31:00,
2013-10-23 04:36:00,44.6,41.3,30.04,NE,34,0.0,0.0,88,0.00,,---,0.00,VWS V14.01,2013-10-23 11:36:00,
2013-10-23 04:41:00,44.5,41.2,30.03,NE,34,0.0,0.0,88,0.00,,---,0.00,VWS V14.01,2013-10-23 11:41:00,
2013-10-23 04:46:00,44.5,41.2,30.03,NNE,17,0.0,1.0,88,0.00,,---,0.00,VWS V14.01,2013-10-23 11:46:00,
2013-10-23 04:51:00,44.4,41.1,30.03,NNE,22,0.0,1.0,88,0.00,,---,0.00,VWS V14.01,2013-10-23 11:51:00,
2013-10-23 04:56:00,44.5,41.2,30.03,ENE,65,1.0,1.0,88,0.00,,---,0.00,VWS V14.01,2013-10-23 11:56:00,
2013-10-23 05:01:00,44.5,41.2,30.03,ENE,65,0.0,1.0,88,0.00,,---,0.00,VWS V14.01,2013-10-23 12:01:00,
2013-10-23 05:06:00,44.6,41.3,30.03,ENE,65,1.0,1.0,88,0.00,,---,0.00,VWS V14.01,2013-10-23 12:06:00,
2013-10-23 05:11:00,44.6,41.3,30.03,ENE,65,0.0,1.0,88,0.00,,---,0.00,VWS V14.01,2013-10-23 12:11:00,
2013-10-23 05:16:00,44.7,41.4,30.03,ENE,75,0.0,1.0,88,0.00,,---,0.00,VWS V14.01,2013-10-23 12:16:00,
2013-10-23 05:21:00,44.7,41.4,30.03,NE,37,0.0,1.0,88,0.00,,---,0.00,VWS V14.01,2013-10-23 12:21:00,
2013-10-23 05:26:00,44.7,41.4,30.03,East,95,0.0,1.0,88,0.00,,---,0.00,VWS V14.01,2013-10-23 12:26:00,
2013-10-23 05:31:00,44.7,41.4,30.03,East,84,1.0,1.0,88,0.00,,---,0.00,VWS V14.01,2013-10-23 12:31:00,
2013-10-23 05:36:00,44.7,41.4,30.03,ESE,110,0.0,1.0,88,0.00,,---,0.00,VWS V14.01,2013-10-23 12:36:00,
2013-10-23 05:41:00,44.6,41.3,30.03,ESE,110,0.0,1.0,88,0.00,,---,0.00,VWS V14.01,2013-10-23 12:41:00,
2013-10-23 05:46:00,44.6,41.3,30.03,East,96,1.0,2.0,88,0.00,,---,0.00,VWS V14.01,2013-10-23 12:46:00,
2013-10-23 05:51:00,44.5,41.2,30.03,East,82,1.0,2.0,88,0.00,,---,0.00,VWS V14.01,2013-10-23 12:51:00,
2013-10-23 05:56:00,44.6,41.3,30.03,East,82,0.0,1.0,88,0.00,,---,0.00,VWS V14.01,2013-10-23 12:56:00,
2013-10-23 06:01:00,44.5,41.2,30.03,East,82,1.0,1.0,88,0.00,,---,0.00,VWS V14.01,2013-10-23 13:01:00,
2013-10-23 06:06:00,44.5,41.2,30.03,East,98,2.0,2.0,88,0.00,,---,0.00,VWS V14.01,2013-10-23 13:06:00,
2013-10-23 06:11:00,44.5,41.2,30.03,East,91,1.0,2.0,88,0.00,,---,0.00,VWS V14.01,2013-10-23 13:11:00,
2013-10-23 06:16:00,44.5,41.2,30.03,East,88,1.0,2.0,88,0.00,,---,0.00,VWS V14.01,2013-10-23 13:16:00,
2013-10-23 06:21:00,44.6,41.3,30.03,East,89,1.0,2.0,88,0.00,,---,0.00,VWS V14.01,2013-10-23 13:21:00,
2013-10-23 06:26:00,44.5,41.2,30.03,East,86,2.0,2.0,88,0.00,,---,0.00,VWS V14.01,2013-10-23 13:26:00,
2013-10-23 06:31:00,44.5,41.2,30.03,ENE,71,1.0,1.0,88,0.00,,---,0.00,VWS V14.01,2013-10-23 13:31:00,
2013-10-23 06:36:00,44.4,41.1,30.03,East,92,1.0,3.0,88,0.00,,---,0.00,VWS V14.01,2013-10-23 13:36:00,
2013-10-23 06:41:00,44.3,41.0,30.03,East,86,2.0,3.0,88,0.00,,---,0.00,VWS V14.01,2013-10-23 13:41:00,
2013-10-23 06:46:00,44.3,41.0,30.03,East,93,1.0,3.0,88,0.00,,---,0.00,VWS V14.01,2013-10-23 13:46:00,
2013-10-23 06:51:00,44.3,41.0,30.03,East,93,1.0,2.0,88,0.00,,---,0.00,VWS V14.01,2013-10-23 13:51:00,
2013-10-23 06:56:00,44.3,41.0,30.03,East,96,1.0,1.0,88,0.00,,---,0.00,VWS V14.01,2013-10-23 13:56:00,
2013-10-23 07:01:00,44.4,41.1,30.03,East,96,0.0,1.0,88,0.00,,---,0.00,VWS V14.01,2013-10-23 14:01:00,
2013-10-23 07:06:00,44.5,41.5,30.03,NNE,32,0.0,2.0,89,0.00,,---,0.00,VWS V14.01,2013-10-23 14:06:00,
2013-10-23 07:11:00,44.2,41.2,30.03,East,84,0.0,2.0,89,0.00,,---,0.00,VWS V14.01,2013-10-23 14:11:00,
2013-10-23 07:16:00,44.2,41.2,30.03,NE,53,0.0,2.0,89,0.00,,---,0.00,VWS V14.01,2013-10-23 14:16:00,
2013-10-23 07:21:00,44.2,41.2,30.03,East,89,1.0,1.0,89,0.00,,---,0.00,VWS V14.01,2013-10-23 14:21:00,
2013-10-23 07:26:00,44.3,41.3,30.03,NW,320,0.0,1.0,89,0.00,,---,0.00,VWS V14.01,2013-10-23 14:26:00,
2013-10-23 07:31:00,44.4,41.4,30.03,North,8,0.0,1.0,89,0.00,,---,0.00,VWS V14.01,2013-10-23 14:31:00,
2013-10-23 07:36:00,44.3,41.3,30.03,NE,49,0.0,1.0,89,0.00,,---,0.00,VWS V14.01,2013-10-23 14:36:00,
2013-10-23 07:41:00,44.4,41.4,30.03,NE,49,0.0,1.0,89,0.00,,---,0.00,VWS V14.01,2013-10-23 14:41:00,
2013-10-23 07:46:00,44.3,41.3,30.03,NE,48,0.0,0.0,89,0.00,,---,0.00,VWS V14.01,2013-10-23 14:46:00,
2013-10-23 07:51:00,44.4,41.4,30.03,NE,51,0.0,0.0,89,0.00,,---,0.00,VWS V14.01,2013-10-23 14:51:00,
2013-10-23 07:56:00,44.4,41.4,30.03,NNE,14,0.0,1.0,89,0.00,,---,0.00,VWS V14.01,2013-10-23 14:56:00,
2013-10-23 08:01:00,44.4,41.4,30.04,NW,326,0.0,1.0,89,0.00,,---,0.00,VWS V14.01,2013-10-23 15:01:00,
2013-10-23 08:06:00,44.4,41.4,30.04,NW,320,0.0,1.0,89,0.00,,---,0.00,VWS V14.01,2013-10-23 15:06:00,
2013-10-23 08:11:00,44.4,41.4,30.04,NW,320,0.0,1.0,89,0.00,,---,0.00,VWS V14.01,2013-10-23 15:11:00,
2013-10-23 08:15:00,44.4,41.4,30.04,NNW,330,0.0,1.0,89,0.00,,---,0.00,VWS V14.01,2013-10-23 15:15:00,
2013-10-23 08:20:00,44.2,41.2,30.04,WNW,295,0.0,1.0,89,0.00,,---,0.00,VWS V14.01,2013-10-23 15:20:00,
2013-10-23 08:25:00,44.1,41.1,30.04,West,281,1.0,1.0,89,0.00,,---,0.00,VWS V14.01,2013-10-23 15:25:00,
2013-10-23 08:30:00,44.1,41.1,30.04,WNW,286,0.0,1.0,89,0.00,,---,0.00,VWS V14.01,2013-10-23 15:30:00,
2013-10-23 08:35:00,44.2,41.2,30.04,West,267,1.0,1.0,89,0.00,,---,0.00,VWS V14.01,2013-10-23 15:35:00,
2013-10-23 08:40:00,44.1,41.1,30.04,WNW,295,0.0,2.0,89,0.00,,---,0.00,VWS V14.01,2013-10-23 15:40:00,
2013-10-23 08:45:00,44.2,41.2,30.04,NNE,14,0.0,1.0,89,0.00,,---,0.00,VWS V14.01,2013-10-23 15:45:00,
2013-10-23 08:50:00,44.3,41.3,30.04,NNE,14,0.0,0.0,89,0.00,,---,0.00,VWS V14.01,2013-10-23 15:50:00,
2013-10-23 08:55:00,44.4,41.4,30.04,North,356,0.0,1.0,89,0.00,,---,0.00,VWS V14.01,2013-10-23 15:55:00,
2013-10-23 09:00:00,44.4,41.4,30.04,North,357,0.0,1.0,89,0.00,,---,0.00,VWS V14.01,2013-10-23 16:00:00,
2013-10-23 09:05:00,44.6,41.6,30.04,NE,37,0.0,2.0,89,0.00,,---,0.00,VWS V14.01,2013-10-23 16:05:00,
2013-10-23 09:10:00,44.5,41.5,30.05,ENE,70,0.0,2.0,89,0.00,,---,0.00,VWS V14.01,2013-10-23 16:10:00,
2013-10-23 09:15:00,44.8,41.8,30.05,NNW,338,0.0,2.0,89,0.00,,---,0.00,VWS V14.01,2013-10-23 16:15:00,
2013-10-23 09:20:00,44.9,41.9,30.05,NW,320,0.0,2.0,89,0.00,,---,0.00,VWS V14.01,2013-10-23 16:20:00,
2013-10-23 09:25:00,45.1,42.1,30.05,NW,304,1.0,1.0,89,0.00,,---,0.00,VWS V14.01,2013-10-23 16:25:00,
2013-10-23 09:30:00,45.3,42.3,30.05,NNW,327,0.0,2.0,89,0.00,,---,0.00,VWS V14.01,2013-10-23 16:30:00,
2013-10-23 09:35:00,45.4,42.3,30.05,North,353,0.0,3.0,89,0.00,,---,0.00,VWS V14.01,2013-10-23 16:35:00,
2013-10-23 09:40:00,45.3,42.3,30.05,NW,323,2.0,3.0,89,0.00,,---,0.00,VWS V14.01,2013-10-23 16:40:00,
2013-10-23 09:45:00,45.3,42.3,30.05,WNW,282,0.0,3.0,89,0.00,,---,0.00,VWS V14.01,2013-10-23 16:45:00,
2013-10-23 09:50:00,45.6,42.5,30.05,NW,320,0.0,1.0,89,0.00,,---,0.00,VWS V14.01,2013-10-23 16:50:00,
2013-10-23 09:55:00,45.7,42.7,30.05,NW,316,0.0,0.0,89,0.00,,---,0.00,VWS V14.01,2013-10-23 16:55:00,
2013-10-23 10:00:00,45.5,42.5,30.05,WNW,299,0.0,3.0,89,0.00,,---,0.00,VWS V14.01,2013-10-23 17:00:00,
2013-10-23 10:05:00,45.7,42.7,30.05,NNE,26,0.0,2.0,89,0.00,,---,0.00,VWS V14.01,2013-10-23 17:05:00,
2013-10-23 10:10:00,45.7,42.7,30.05,North,6,1.0,1.0,89,0.00,,---,0.00,VWS V14.01,2013-10-23 17:10:00,
2013-10-23 10:15:00,45.9,42.8,30.05,WNW,300,3.0,4.0,89,0.00,,---,0.00,VWS V14.01,2013-10-23 17:15:00,
2013-10-23 10:20:00,45.8,42.8,30.05,NW,306,1.0,4.0,89,0.00,,---,0.00,VWS V14.01,2013-10-23 17:20:00,
2013-10-23 10:25:00,45.9,42.8,30.05,NW,307,1.0,1.0,89,0.00,,---,0.00,VWS V14.01,2013-10-23 17:25:00,
2013-10-23 10:30:00,46.0,43.0,30.05,NNW,333,0.0,3.0,89,0.00,,---,0.00,VWS V14.01,2013-10-23 17:30:00,
2013-10-23 10:35:00,45.9,42.8,30.05,WNW,283,0.0,2.0,89,0.00,,---,0.00,VWS V14.01,2013-10-23 17:35:00,
2013-10-23 10:40:00,46.2,43.1,30.05,ESE,104,0.0,1.0,89,0.00,,---,0.00,VWS V14.01,2013-10-23 17:40:00,
2013-10-23 10:45:00,46.4,43.3,30.05,WNW,293,3.0,5.0,89,0.00,,---,0.00,VWS V14.01,2013-10-23 17:45:00,
2013-10-23 10:50:00,46.1,43.0,30.05,NNW,330,2.0,3.0,89,0.00,,---,0.00,VWS V14.01,2013-10-23 17:50:00,
2013-10-23 10:55:00,46.0,43.0,30.05,WNW,300,3.0,4.0,89,0.00,,---,0.00,VWS V14.01,2013-10-23 17:55:00,
2013-10-23 11:00:00,45.9,42.5,30.06,WNW,291,3.0,4.0,88,0.00,,---,0.00,VWS V14.01,2013-10-23 18:00:00,
2013-10-23 11:05:00,46.1,42.8,30.06,NW,320,1.0,2.0,88,0.00,,---,0.00,VWS V14.01,2013-10-23 18:05:00,
2013-10-23 11:10:00,46.2,42.8,30.06,NW,305,1.0,2.0,88,0.00,,---,0.00,VWS V14.01,2013-10-23 18:10:00,
2013-10-23 11:15:00,46.4,43.0,30.06,WNW,283,2.0,2.0,88,0.00,,---,0.00,VWS V14.01,2013-10-23 18:15:00,
2013-10-23 11:20:00,46.4,43.0,30.06,NNW,330,2.0,2.0,88,0.00,,---,0.00,VWS V14.01,2013-10-23 18:20:00,
2013-10-23 11:25:00,46.3,43.0,30.06,NW,322,1.0,3.0,88,0.00,,---,0.00,VWS V14.01,2013-10-23 18:25:00,
2013-10-23 11:30:00,46.5,43.1,30.05,NE,46,0.0,2.0,88,0.00,,---,0.00,VWS V14.01,2013-10-23 18:30:00,
2013-10-23 11:35:00,46.9,43.5,30.05,NE,52,0.0,1.0,88,0.00,,---,0.00,VWS V14.01,2013-10-23 18:35:00,
2013-10-23 11:40:00,47.2,43.8,30.05,NW,304,0.0,1.0,88,0.00,,---,0.00,VWS V14.01,2013-10-23 18:40:00,
2013-10-23 11:45:00,47.2,43.8,30.06,WNW,296,1.0,3.0,88,0.00,,---,0.00,VWS V14.01,2013-10-23 18:45:00,
2013-10-23 11:50:00,46.7,43.3,30.06,WNW,288,0.0,4.0,88,0.00,,---,0.00,VWS V14.01,2013-10-23 18:50:00,
2013-10-23 11:55:00,46.7,43.3,30.05,WNW,293,3.0,4.0,88,0.00,,---,0.00,VWS V14.01,2013-10-23 18:55:00,
2013-10-23 12:00:00,46.9,43.5,30.06,WNW,292,3.0,3.0,88,0.00,,---,0.00,VWS V14.01,2013-10-23 19:00:00,
2013-10-23 12:05:00,47.0,43.6,30.05,NW,315,2.0,3.0,88,0.00,,---,0.00,VWS V14.01,2013-10-23 19:05:00,
2013-10-23 12:10:00,47.5,44.1,30.05,WSW,257,0.0,1.0,88,0.00,,---,0.00,VWS V14.01,2013-10-23 19:10:00,
2013-10-23 12:15:00,47.7,44.3,30.05,ESE,115,0.0,1.0,88,0.00,,---,0.00,VWS V14.01,2013-10-23 19:15:00,
2013-10-23 12:20:00,47.6,44.2,30.05,NW,304,2.0,4.0,88,0.00,,---,0.00,VWS V14.01,2013-10-23 19:20:00,
2013-10-23 12:25:00,47.3,43.9,30.05,WNW,285,1.0,3.0,88,0.00,,---,0.00,VWS V14.01,2013-10-23 19:25:00,
2013-10-23 12:30:00,47.6,44.2,30.05,WNW,287,2.0,2.0,88,0.00,,---,0.00,VWS V14.01,2013-10-23 19:30:00,
2013-10-23 12:35:00,47.7,44.3,30.05,WNW,288,2.0,3.0,88,0.00,,---,0.00,VWS V14.01,2013-10-23 19:35:00,
2013-10-23 12:40:00,47.5,43.8,30.05,WNW,289,1.0,4.0,87,0.00,,---,0.00,VWS V14.01,2013-10-23 19:40:00,
2013-10-23 12:45:00,47.6,43.9,30.05,WNW,283,1.0,3.0,87,0.00,,---,0.00,VWS V14.01,2013-10-23 19:45:00,
2013-10-23 12:50:00,47.8,44.1,30.05,NW,313,2.0,3.0,87,0.00,,---,0.00,VWS V14.01,2013-10-23 19:50:00,
2013-10-23 12:55:00,47.8,44.1,30.04,NW,309,2.0,3.0,87,0.00,,---,0.00,VWS V14.01,2013-10-23 19:55:00,
2013-10-23 13:00:00,47.9,44.2,30.04,NW,318,2.0,3.0,87,0.00,,---,0.00,VWS V14.01,2013-10-23 20:00:00,
2013-10-23 13:05:00,48.3,44.6,30.04,NW,309,0.0,0.0,87,0.00,,---,0.00,VWS V14.01,2013-10-23 20:05:00,
2013-10-23 13:10:00,48.8,45.1,30.04,WNW,285,1.0,1.0,87,0.00,,---,0.00,VWS V14.01,2013-10-23 20:10:00,
2013-10-23 13:15:00,48.4,44.7,30.04,WNW,300,3.0,3.0,87,0.00,,---,0.00,VWS V14.01,2013-10-23 20:15:00,
2013-10-23 13:20:00,48.3,44.6,30.03,West,260,1.0,3.0,87,0.00,,---,0.00,VWS V14.01,2013-10-23 20:20:00,
2013-10-23 13:25:00,48.5,44.8,30.03,WSW,243,0.0,3.0,87,0.00,,---,0.00,VWS V14.01,2013-10-23 20:25:00,
2013-10-23 13:30:00,48.7,45.0,30.03,West,275,0.0,2.0,87,0.00,,---,0.00,VWS V14.01,2013-10-23 20:30:00,
2013-10-23 13:35:00,49.1,45.1,30.03,WNW,295,0.0,2.0,86,0.00,,---,0.00,VWS V14.01,2013-10-23 20:35:00,
2013-10-23 13:40:00,49.4,45.4,30.03,NW,309,2.0,2.0,86,0.00,,---,0.00,VWS V14.01,2013-10-23 20:40:00,
2013-10-23 13:45:00,49.3,45.6,30.03,WNW,292,1.0,2.0,87,0.00,,---,0.00,VWS V14.01,2013-10-23 20:45:00,
2013-10-23 13:50:00,49.5,45.5,30.02,WNW,300,0.0,1.0,86,0.00,,---,0.00,VWS V14.01,2013-10-23 20:50:00,
2013-10-23 13:55:00,49.7,45.7,30.02,WNW,291,1.0,3.0,86,0.00,,---,0.00,VWS V14.01,2013-10-23 20:55:00,
2013-10-23 14:00:00,49.9,45.9,30.02,WNW,286,2.0,3.0,86,0.00,,---,0.00,VWS V14.01,2013-10-23 21:00:00,
2013-10-23 14:05:00,50.1,46.4,30.02,WNW,299,1.0,3.0,87,0.00,,---,0.00,VWS V14.01,2013-10-23 21:05:00,
2013-10-23 14:10:00,50.5,46.8,30.01,NW,306,3.0,4.0,87,0.00,,---,0.00,VWS V14.01,2013-10-23 21:10:00,
2013-10-23 14:15:00,50.8,47.7,30.01,WNW,289,4.0,4.0,89,0.00,,---,0.00,VWS V14.01,2013-10-23 21:15:00,
2013-10-23 14:20:00,51.1,48.3,30.01,NW,316,2.0,2.0,90,0.00,,---,0.00,VWS V14.01,2013-10-23 21:20:00,
2013-10-23 14:25:00,51.5,48.7,30.01,WNW,293,1.0,3.0,90,0.00,,---,0.00,VWS V14.01,2013-10-23 21:25:00,
2013-10-23 14:30:00,52.0,49.2,30.01,West,270,1.0,3.0,90,0.00,,---,0.00,VWS V14.01,2013-10-23 21:30:00,
2013-10-23 14:35:00,52.5,49.7,30.01,West,271,1.0,3.0,90,0.00,,---,0.00,VWS V14.01,2013-10-23 21:35:00,
2013-10-23 14:40:00,53.1,50.0,30.01,WNW,285,0.0,3.0,89,0.00,,---,0.00,VWS V14.01,2013-10-23 21:40:00,
2013-10-23 14:45:00,53.9,50.4,30.00,SSW,207,0.0,3.0,88,0.00,,---,0.00,VWS V14.01,2013-10-23 21:45:00,
2013-10-23 14:50:00,54.1,50.3,30.00,SW,225,1.0,2.0,87,0.00,,---,0.00,VWS V14.01,2013-10-23 21:50:00,
2013-10-23 14:55:00,54.3,50.2,30.00,NW,304,2.0,4.0,86,0.00,,---,0.00,VWS V14.01,2013-10-23 21:55:00,
2013-10-23 15:00:00,54.5,50.4,30.00,WSW,252,0.0,4.0,86,0.00,,---,0.00,VWS V14.01,2013-10-23 22:00:00,
2013-10-23 15:05:00,55.0,50.9,30.00,WNW,288,2.0,4.0,86,0.00,,---,0.00,VWS V14.01,2013-10-23 22:05:00,
2013-10-23 15:10:00,55.6,50.5,30.00,WNW,288,1.0,3.0,83,0.00,,---,0.00,VWS V14.01,2013-10-23 22:10:00,
2013-10-23 15:15:00,55.8,50.7,30.00,West,259,1.0,2.0,83,0.00,,---,0.00,VWS V14.01,2013-10-23 22:15:00,
2013-10-23 15:20:00,56.1,50.7,30.00,WNW,300,1.0,3.0,82,0.00,,---,0.00,VWS V14.01,2013-10-23 22:20:00,
2013-10-23 15:25:00,55.8,50.1,30.00,WNW,302,3.0,4.0,81,0.00,,---,0.00,VWS V14.01,2013-10-23 22:25:00,
2013-10-23 15:30:00,56.0,49.9,30.00,WNW,297,3.0,4.0,80,0.00,,---,0.00,VWS V14.01,2013-10-23 22:30:00,
2013-10-23 15:35:00,56.0,49.9,30.00,NW,315,2.0,5.0,80,0.00,,---,0.00,VWS V14.01,2013-10-23 22:35:00,
2013-10-23 15:40:00,56.1,50.4,30.00,WNW,295,1.0,4.0,81,0.00,,---,0.00,VWS V14.01,2013-10-23 22:40:00,
2013-10-23 15:45:00,56.2,50.1,30.00,NW,320,3.0,4.0,80,0.00,,---,0.00,VWS V14.01,2013-10-23 22:45:00,
2013-10-23 15:50:00,56.3,50.2,30.00,WNW,300,3.0,5.0,80,0.00,,---,0.00,VWS V14.01,2013-10-23 22:50:00,
2013-10-23 15:55:00,56.1,50.0,30.00,WNW,287,3.0,3.0,80,0.00,,---,0.00,VWS V14.01,2013-10-23 22:55:00,
2013-10-23 16:00:00,56.2,50.1,29.99,WNW,284,2.0,4.0,80,0.00,,---,0.00,VWS V14.01,2013-10-23 23:00:00,
2013-10-23 16:05:00,56.5,50.1,29.99,WNW,290,3.0,4.0,79,0.00,,---,0.00,VWS V14.01,2013-10-23 23:05:00,
2013-10-23 16:10:00,56.6,49.8,29.99,WNW,301,4.0,5.0,78,0.00,,---,0.00,VWS V14.01,2013-10-23 23:10:00,
2013-10-23 16:15:00,56.9,49.8,29.99,WNW,301,1.0,3.0,77,0.00,,---,0.00,VWS V14.01,2013-10-23 23:15:00,
2013-10-23 16:20:00,57.0,49.9,29.99,NW,317,2.0,4.0,77,0.00,,---,0.00,VWS V14.01,2013-10-23 23:20:00,
2013-10-23 16:25:00,57.1,50.0,29.99,WNW,291,0.0,2.0,77,0.00,,---,0.00,VWS V14.01,2013-10-23 23:25:00,
2013-10-23 16:30:00,57.8,50.7,29.99,West,262,1.0,2.0,77,0.00,,---,0.00,VWS V14.01,2013-10-23 23:30:00,
2013-10-23 16:35:00,57.6,50.5,29.99,WSW,239,1.0,3.0,77,0.00,,---,0.00,VWS V14.01,2013-10-23 23:35:00,
2013-10-23 16:40:00,57.6,50.5,29.99,West,260,0.0,2.0,77,0.00,,---,0.00,VWS V14.01,2013-10-23 23:40:00,
2013-10-23 16:45:00,58.0,50.8,29.99,West,274,1.0,1.0,77,0.00,,---,0.00,VWS V14.01,2013-10-23 23:45:00,
2013-10-23 16:50:00,58.2,50.7,29.99,WNW,297,2.0,2.0,76,0.00,,---,0.00,VWS V14.01,2013-10-23 23:50:00,
2013-10-23 16:55:00,58.0,50.1,29.99,WNW,298,2.0,2.0,75,0.00,,---,0.00,VWS V14.01,2013-10-23 23:55:00,
2013-10-23 17:00:00,57.7,50.2,29.99,SW,234,0.0,2.0,76,0.00,,---,0.00,VWS V14.01,2013-10-24 00:00:00,
2013-10-23 17:05:00,57.2,50.1,29.99,SW,230,1.0,4.0,77,0.00,,---,0.00,VWS V14.01,2013-10-24 00:05:00,
2013-10-23 17:10:00,56.7,49.6,29.99,SSW,208,0.0,3.0,77,0.00,,---,0.00,VWS V14.01,2013-10-24 00:10:00,
2013-10-23 17:15:00,56.7,49.9,29.99,SW,236,0.0,1.0,78,0.00,,---,0.00,VWS V14.01,2013-10-24 00:15:00,
2013-10-23 17:20:00,56.6,49.8,29.99,NW,309,0.0,1.0,78,0.00,,---,0.00,VWS V14.01,2013-10-24 00:20:00,
2013-10-23 17:25:00,56.4,50.0,29.99,ESE,120,0.0,2.0,79,0.00,,---,0.00,VWS V14.01,2013-10-24 00:25:00,
2013-10-23 17:30:00,56.3,49.9,29.99,SSW,207,0.0,1.0,79,0.00,,---,0.00,VWS V14.01,2013-10-24 00:30:00,
2013-10-23 17:35:00,55.4,49.3,29.99,WSW,240,0.0,1.0,80,0.00,,---,0.00,VWS V14.01,2013-10-24 00:35:00,
2013-10-23 17:40:00,54.5,49.5,29.98,WSW,240,0.0,1.0,83,0.00,,---,0.00,VWS V14.01,2013-10-24 00:40:00,
2013-10-23 17:45:00,53.8,49.1,29.98,WSW,240,0.0,0.0,84,0.00,,---,0.00,VWS V14.01,2013-10-24 00:45:00,
2013-10-23 17:50:00,53.3,48.9,29.98,WSW,240,0.0,0.0,85,0.00,,---,0.00,VWS V14.01,2013-10-24 00:50:00,
2013-10-23 17:55:00,52.7,48.6,29.98,WSW,240,0.0,0.0,86,0.00,,---,0.00,VWS V14.01,2013-10-24 00:55:00,
2013-10-23 18:00:00,52.1,48.0,29.98,WSW,240,0.0,0.0,86,0.00,,---,0.00,VWS V14.01,2013-10-24 01:00:00,
2013-10-23 18:05:00,51.4,47.7,29.98,WSW,241,0.0,0.0,87,0.00,,---,0.00,VWS V14.01,2013-10-24 01:05:00,
2013-10-23 18:10:00,50.8,47.4,29.98,WSW,241,0.0,0.0,88,0.00,,---,0.00,VWS V14.01,2013-10-24 01:10:00,
2013-10-23 18:15:00,50.3,47.2,29.98,WSW,241,0.0,0.0,89,0.00,,---,0.00,VWS V14.01,2013-10-24 01:15:00,
2013-10-23 18:20:00,49.9,46.8,29.99,WSW,240,0.0,0.0,89,0.00,,---,0.00,VWS V14.01,2013-10-24 01:20:00,
2013-10-23 18:25:00,49.5,46.4,29.98,WSW,240,0.0,1.0,89,0.00,,---,0.00,VWS V14.01,2013-10-24 01:25:00,
2013-10-23 18:30:00,49.4,46.6,29.99,WSW,240,0.0,1.0,90,0.00,,---,0.00,VWS V14.01,2013-10-24 01:30:00,
2013-10-23 18:35:00,49.0,46.2,29.99,WSW,241,0.0,1.0,90,0.00,,---,0.00,VWS V14.01,2013-10-24 01:35:00,
2013-10-23 18:40:00,48.6,45.8,29.99,WSW,240,0.0,0.0,90,0.00,,---,0.00,VWS V14.01,2013-10-24 01:40:00,
2013-10-23 18:45:00,48.3,45.5,29.99,WSW,240,0.0,0.0,90,0.00,,---,0.00,VWS V14.01,2013-10-24 01:45:00,
2013-10-23 18:50:00,48.0,45.2,29.99,WSW,241,0.0,0.0,90,0.00,,---,0.00,VWS V14.01,2013-10-24 01:50:00,
2013-10-23 18:55:00,47.9,45.1,29.99,WSW,240,0.0,1.0,90,0.00,,---,0.00,VWS V14.01,2013-10-24 01:55:00,
2013-10-23 19:00:00,47.9,45.1,29.99,WSW,240,0.0,0.0,90,0.00,,---,0.00,VWS V14.01,2013-10-24 02:00:00,
2013-10-23 19:05:00,47.7,44.9,29.99,WSW,240,0.0,0.0,90,0.00,,---,0.00,VWS V14.01,2013-10-24 02:05:00,
2013-10-23 19:10:00,47.7,44.6,29.99,WSW,240,0.0,1.0,89,0.00,,---,0.00,VWS V14.01,2013-10-24 02:10:00,
2013-10-23 19:15:00,48.0,44.9,30.00,WSW,241,0.0,0.0,89,0.00,,---,0.00,VWS V14.01,2013-10-24 02:15:00,
2013-10-23 19:20:00,47.8,44.7,30.00,WSW,241,0.0,0.0,89,0.00,,---,0.00,VWS V14.01,2013-10-24 02:20:00,
2013-10-23 19:25:00,47.4,44.3,30.00,WSW,241,0.0,0.0,89,0.00,,---,0.00,VWS V14.01,2013-10-24 02:25:00,
2013-10-23 19:30:00,47.4,44.3,30.00,SE,145,0.0,0.0,89,0.00,,---,0.00,VWS V14.01,2013-10-24 02:30:00,
2013-10-23 19:35:00,47.8,44.1,29.99,SE,124,0.0,1.0,87,0.00,,---,0.00,VWS V14.01,2013-10-24 02:35:00,
2013-10-23 19:40:00,48.0,44.6,30.00,SE,124,0.0,0.0,88,0.00,,---,0.00,VWS V14.01,2013-10-24 02:40:00,
2013-10-23 19:45:00,47.7,44.6,30.00,SE,124,0.0,0.0,89,0.00,,---,0.00,VWS V14.01,2013-10-24 02:45:00,
2013-10-23 19:50:00,47.5,44.4,30.00,SE,124,0.0,0.0,89,0.00,,---,0.00,VWS V14.01,2013-10-24 02:50:00,
2013-10-23 19:55:00,47.4,44.0,30.00,SE,124,0.0,0.0,88,0.00,,---,0.00,VWS V14.01,2013-10-24 02:55:00,
2013-10-23 20:00:00,47.2,43.8,30.00,SE,124,0.0,0.0,88,0.00,,---,0.00,VWS V14.01,2013-10-24 03:00:00,
2013-10-23 20:05:00,46.9,43.8,30.00,SE,124,0.0,0.0,89,0.00,,---,0.00,VWS V14.01,2013-10-24 03:05:00,
2013-10-23 20:10:00,46.7,43.3,30.00,SE,124,0.0,0.0,88,0.00,,---,0.00,VWS V14.01,2013-10-24 03:10:00,
2013-10-23 20:15:00,46.8,43.1,30.00,SE,124,0.0,0.0,87,0.00,,---,0.00,VWS V14.01,2013-10-24 03:15:00,
2013-10-23 20:20:00,46.7,43.3,30.00,SE,124,0.0,0.0,88,0.00,,---,0.00,VWS V14.01,2013-10-24 03:20:00,
2013-10-23 20:25:00,46.6,42.9,30.00,SE,124,0.0,0.0,87,0.00,,---,0.00,VWS V14.01,2013-10-24 03:25:00,
2013-10-23 20:30:00,46.5,42.8,30.00,SE,124,0.0,0.0,87,0.00,,---,0.00,VWS V14.01,2013-10-24 03:30:00,
2013-10-23 20:37:00,46.3,42.7,30.00,SE,124,0.0,0.0,87,0.00,,---,0.00,VWS V14.01,2013-10-24 03:37:00,
2013-10-23 20:44:00,46.1,42.5,30.00,SE,124,0.0,0.0,87,0.00,,---,0.00,VWS V14.01,2013-10-24 03:44:00,
2013-10-23 20:49:00,46.0,42.0,30.00,SE,124,0.0,0.0,86,0.00,,---,0.00,VWS V14.01,2013-10-24 03:49:00,
2013-10-23 20:54:00,45.8,41.9,30.00,SE,124,0.0,0.0,86,0.00,,---,0.00,VWS V14.01,2013-10-24 03:54:00,
2013-10-23 20:59:00,45.9,42.0,30.00,SE,124,0.0,0.0,86,0.00,,---,0.00,VWS V14.01,2013-10-24 03:59:00,
2013-10-23 21:01:00,45.9,42.0,30.00,SE,124,0.0,0.0,86,0.00,,---,0.00,VWS V14.01,2013-10-24 04:01:00,
2013-10-23 21:06:00,46.1,41.8,30.00,SE,124,0.0,1.0,85,0.00,,---,0.00,VWS V14.01,2013-10-24 04:06:00,
2013-10-23 21:11:00,46.1,41.8,30.00,SE,124,0.0,0.0,85,0.00,,---,0.00,VWS V14.01,2013-10-24 04:11:00,
2013-10-23 21:16:00,46.0,42.0,30.00,SE,124,0.0,0.0,86,0.00,,---,0.00,VWS V14.01,2013-10-24 04:16:00,
2013-10-23 21:21:00,45.8,41.9,30.00,SE,124,0.0,0.0,86,0.00,,---,0.00,VWS V14.01,2013-10-24 04:21:00,
2013-10-23 21:26:00,45.6,41.7,30.01,SE,124,0.0,0.0,86,0.00,,---,0.00,VWS V14.01,2013-10-24 04:26:00,
2013-10-23 21:31:00,45.4,41.5,30.01,SE,124,0.0,0.0,86,0.00,,---,0.00,VWS V14.01,2013-10-24 04:31:00,
2013-10-23 21:36:00,45.3,41.4,30.01,SE,124,0.0,0.0,86,0.00,,---,0.00,VWS V14.01,2013-10-24 04:36:00,
2013-10-23 21:41:00,45.2,41.3,30.00,SE,124,0.0,1.0,86,0.00,,---,0.00,VWS V14.01,2013-10-24 04:41:00,
2013-10-23 21:46:00,45.2,41.3,30.01,SE,124,1.0,1.0,86,0.00,,---,0.00,VWS V14.01,2013-10-24 04:46:00,
2013-10-23 21:51:00,45.1,41.2,30.01,SE,124,0.0,0.0,86,0.00,,---,0.00,VWS V14.01,2013-10-24 04:51:00,
2013-10-23 21:56:00,45.2,41.0,30.01,SE,124,0.0,1.0,85,0.00,,---,0.00,VWS V14.01,2013-10-24 04:56:00,
2013-10-23 22:01:00,45.5,41.3,30.01,SE,124,0.0,0.0,85,0.00,,---,0.00,VWS V14.01,2013-10-24 05:01:00,
2013-10-23 22:06:00,45.5,41.3,30.01,SE,124,0.0,0.0,85,0.00,,---,0.00,VWS V14.01,2013-10-24 05:06:00,
2013-10-23 22:11:00,45.5,41.3,30.01,SE,124,0.0,0.0,85,0.00,,---,0.00,VWS V14.01,2013-10-24 05:11:00,
2013-10-23 22:16:00,45.4,41.2,30.01,SE,124,0.0,0.0,85,0.00,,---,0.00,VWS V14.01,2013-10-24 05:16:00,
2013-10-23 22:21:00,45.3,41.1,30.01,SE,124,0.0,0.0,85,0.00,,---,0.00,VWS V14.01,2013-10-24 05:21:00,
2013-10-23 22:26:00,45.1,41.2,30.01,SE,124,0.0,0.0,86,0.00,,---,0.00,VWS V14.01,2013-10-24 05:26:00,
2013-10-23 22:31:00,44.9,41.0,30.01,SE,124,0.0,0.0,86,0.00,,---,0.00,VWS V14.01,2013-10-24 05:31:00,
2013-10-23 22:36:00,45.2,41.0,30.01,ESE,108,0.0,0.0,85,0.00,,---,0.00,VWS V14.01,2013-10-24 05:36:00,
2013-10-23 22:41:00,45.3,41.4,30.01,ESE,108,0.0,0.0,86,0.00,,---,0.00,VWS V14.01,2013-10-24 05:41:00,
2013-10-23 22:46:00,45.2,41.3,30.01,ESE,108,0.0,0.0,86,0.00,,---,0.00,VWS V14.01,2013-10-24 05:46:00,
2013-10-23 22:51:00,45.1,41.2,30.02,ESE,108,0.0,0.0,86,0.00,,---,0.00,VWS V14.01,2013-10-24 05:51:00,
2013-10-23 22:56:00,45.3,41.4,30.02,ESE,108,0.0,0.0,86,0.00,,---,0.00,VWS V14.01,2013-10-24 05:56:00,
2013-10-23 23:01:00,45.3,41.4,30.02,ESE,108,0.0,0.0,86,0.00,,---,0.00,VWS V14.01,2013-10-24 06:01:00,
2013-10-23 23:06:00,45.2,41.3,30.02,ESE,108,0.0,0.0,86,0.00,,---,0.00,VWS V14.01,2013-10-24 06:06:00,
2013-10-23 23:11:00,45.0,41.1,30.02,ESE,108,0.0,0.0,86,0.00,,---,0.00,VWS V14.01,2013-10-24 06:11:00,
2013-10-23 23:16:00,44.8,40.9,30.02,ESE,108,0.0,0.0,86,0.00,,---,0.00,VWS V14.01,2013-10-24 06:16:00,
2013-10-23 23:21:00,44.7,40.8,30.02,ESE,108,0.0,0.0,86,0.00,,---,0.00,VWS V14.01,2013-10-24 06:21:00,
2013-10-23 23:26:00,45.0,41.1,30.02,ESE,108,0.0,0.0,86,0.00,,---,0.00,VWS V14.01,2013-10-24 06:26:00,
2013-10-23 23:31:00,45.3,41.4,30.02,ESE,108,0.0,0.0,86,0.00,,---,0.00,VWS V14.01,2013-10-24 06:31:00,
2013-10-23 23:36:00,45.9,42.0,30.02,East,94,1.0,2.0,86,0.00,,---,0.00,VWS V14.01,2013-10-24 06:36:00,
2013-10-23 23:41:00,46.4,42.8,30.02,East,94,0.0,1.0,87,0.00,,---,0.00,VWS V14.01,2013-10-24 06:41:00,
2013-10-23 23:46:00,46.5,42.8,30.02,East,94,0.0,0.0,87,0.00,,---,0.00,VWS V14.01,2013-10-24 06:46:00,
2013-10-23 23:51:00,46.0,42.0,30.02,East,94,0.0,0.0,86,0.00,,---,0.00,VWS V14.01,2013-10-24 06:51:00,
2013-10-23 23:56:00,45.6,41.7,30.02,East,94,0.0,0.0,86,0.00,,---,0.00,VWS V14.01,2013-10-24 06:56:00,